createdAt,value
2019-04-30T00:02:05.573Z,100.00
2019-04-30T00:05:15.171Z,99.55
2019-04-30T00:08:20.843Z,99.62
2019-04-30T00:11:27.174Z,98.58
2019-04-30T00:14:38.607Z,97.94
2019-04-30T00:17:42.083Z,98.17
2019-04-30T00:20:48.457Z,98.19
2019-04-30T00:23:56.153Z,98.81
2019-04-30T00:27:02.778Z,98.48
2019-04-30T00:30:09.707Z,99.16
2019-04-30T00:33:22.231Z,98.61
2019-04-30T00:36:29.350Z,97.23
2019-04-30T00:39:32.693Z,95.83
2019-04-30T00:42:39.056Z,96.07
2019-04-30T00:45:47.564Z,95.89
2019-04-30T00:48:55.718Z,96.26
2019-04-30T00:52:02.628Z,95.81
2019-04-30T00:55:09.380Z,96.35
2019-04-30T00:58:17.711Z,95.14
2019-04-30T01:01:51.771Z,95.67
2019-04-30T01:05:05.337Z,95.86
2019-04-30T01:08:08.452Z,94.11
2019-04-30T01:11:15.455Z,94.75
2019-04-30T01:14:23.151Z,93.29
2019-04-30T01:17:30.400Z,92.62
2019-04-30T01:20:38.657Z,93.11
2019-04-30T01:23:51.928Z,93.82
2019-04-30T01:26:53.497Z,94.64
2019-04-30T01:30:00.133Z,95.47
2019-04-30T01:33:06.605Z,96.43
2019-04-30T01:36:13.440Z,96.85
2019-04-30T01:39:23.662Z,96.26
2019-04-30T01:42:28.493Z,97.86
2019-04-30T01:45:34.910Z,97.26
2019-04-30T01:48:43.716Z,98.00
2019-04-30T01:51:52.865Z,99.16
2019-04-30T01:54:58.698Z,96.82
2019-04-30T01:58:19.850Z,96.69
2019-04-30T02:01:28.594Z,94.88
2019-04-30T02:04:35.859Z,97.48
2019-04-30T02:07:42.227Z,97.60
2019-04-30T02:10:49.197Z,97.10
2019-04-30T02:13:56.686Z,97.57
2019-04-30T02:17:03.162Z,97.55
2019-04-30T02:20:10.116Z,96.30
2019-04-30T02:23:16.501Z,94.97
2019-04-30T02:26:22.915Z,97.16
2019-04-30T02:29:29.746Z,97.95
2019-04-30T02:32:36.285Z,96.12
2019-04-30T02:36:10.711Z,95.65
2019-04-30T02:39:17.131Z,93.87
2019-04-30T02:42:23.961Z,94.71
2019-04-30T02:45:31.672Z,95.83
2019-04-30T02:48:39.967Z,93.28
2019-04-30T02:51:49.738Z,93.95
2019-04-30T02:54:59.211Z,94.10
2019-04-30T02:58:04.779Z,94.72
2019-04-30T03:01:11.242Z,95.46
2019-04-30T03:04:19.669Z,96.05
2019-04-30T03:07:25.881Z,97.13
2019-04-30T03:10:32.280Z,97.57
2019-04-30T03:13:42.546Z,98.08
2019-04-30T03:16:55.932Z,96.05
2019-04-30T03:20:35.574Z,95.32
2019-04-30T03:23:39.192Z,94.81
2019-04-30T03:26:45.893Z,95.47
2019-04-30T03:29:52.750Z,94.37
2019-04-30T03:33:02.771Z,94.16
2019-04-30T03:36:11.929Z,94.60
2019-04-30T03:39:15.349Z,94.73
2019-04-30T03:42:21.718Z,94.48
2019-04-30T03:45:30.155Z,93.78
2019-04-30T03:48:36.205Z,94.38
2019-04-30T03:51:42.724Z,93.30
2019-04-30T03:54:49.547Z,93.71
2019-04-30T03:57:59.865Z,94.01
2019-04-30T04:01:21.372Z,92.71
2019-04-30T04:05:01.105Z,95.81
2019-04-30T04:08:19.720Z,95.70
2019-04-30T04:11:30.158Z,95.75
2019-04-30T04:14:39.335Z,96.00
2019-04-30T04:17:44.733Z,96.28
2019-04-30T04:21:07.016Z,95.08
2019-04-30T04:24:00.211Z,95.55
2019-04-30T04:27:09.562Z,93.65
2019-04-30T04:30:15.383Z,97.13
2019-04-30T04:33:21.881Z,98.56
2019-04-30T04:36:30.269Z,99.06
2019-04-30T04:39:36.483Z,98.52
2019-04-30T04:42:42.940Z,97.39
2019-04-30T04:45:50.007Z,96.87
2019-04-30T04:48:59.437Z,98.45
2019-04-30T04:52:04.790Z,98.81
2019-04-30T04:55:12.996Z,99.06
2019-04-30T04:58:21.508Z,100.00
2019-04-30T05:01:28.870Z,100.00
2019-04-30T05:04:35.572Z,100.00
2019-04-30T05:07:41.957Z,100.00
2019-04-30T05:10:49.492Z,99.16
2019-04-30T05:13:56.067Z,98.18
2019-04-30T05:17:02.454Z,99.21
2019-04-30T05:20:11.154Z,93.31
2019-04-30T05:23:19.557Z,91.11
2019-04-30T05:26:25.917Z,97.94
2019-04-30T05:29:32.360Z,94.80
2019-04-30T05:32:39.173Z,94.72
2019-04-30T05:35:46.887Z,94.31
2019-04-30T05:38:53.280Z,94.02
2019-04-30T05:41:59.688Z,92.74
2019-04-30T05:45:09.325Z,92.75
2019-04-30T05:48:16.277Z,92.13
2019-04-30T05:51:22.674Z,91.31
2019-04-30T05:54:29.280Z,90.76
2019-04-30T05:57:35.779Z,89.51
2019-04-30T06:00:42.171Z,90.19
2019-04-30T06:03:48.577Z,88.56
2019-04-30T06:06:55.218Z,88.79
2019-04-30T06:10:10.274Z,88.36
2019-04-30T06:13:20.706Z,88.10
2019-04-30T06:16:29.692Z,86.40
2019-04-30T06:19:36.199Z,87.17
2019-04-30T06:22:42.739Z,86.41
2019-04-30T06:25:59.917Z,86.91
2019-04-30T06:29:00.055Z,87.32
2019-04-30T06:32:08.530Z,88.80
2019-04-30T06:35:15.155Z,85.26
2019-04-30T06:38:21.704Z,87.57
2019-04-30T06:41:29.576Z,86.59
2019-04-30T06:44:39.322Z,87.59
2019-04-30T06:47:46.121Z,85.87
2019-04-30T06:50:52.508Z,86.87
2019-04-30T06:53:58.919Z,84.77
2019-04-30T06:57:05.486Z,85.37
2019-04-30T07:00:13.186Z,85.52
2019-04-30T07:03:20.004Z,84.50
2019-04-30T07:06:29.669Z,84.70
2019-04-30T07:09:54.581Z,86.05
2019-04-30T07:12:59.168Z,83.10
2019-04-30T07:16:05.615Z,84.14
2019-04-30T07:19:12.151Z,83.44
2019-04-30T07:22:20.710Z,84.34
2019-04-30T07:25:26.662Z,83.26
2019-04-30T07:28:43.047Z,84.15
2019-04-30T07:31:41.417Z,81.89
2019-04-30T07:34:49.551Z,82.27
2019-04-30T07:38:00.665Z,81.83
2019-04-30T07:41:04.356Z,82.55
2019-04-30T07:44:29.459Z,82.90
2019-04-30T07:47:20.179Z,82.84
2019-04-30T07:50:27.176Z,81.32
2019-04-30T07:53:34.494Z,79.13
2019-04-30T07:56:41.898Z,81.10
2019-04-30T07:59:49.943Z,79.45
2019-04-30T08:03:06.348Z,79.86
2019-04-30T08:06:23.096Z,78.47
2019-04-30T08:09:38.635Z,79.98
2019-04-30T08:12:42.038Z,79.11
2019-04-30T08:15:46.155Z,79.64
2019-04-30T08:18:53.529Z,79.83
2019-04-30T08:21:59.934Z,79.74
2019-04-30T08:25:07.023Z,80.12
2019-04-30T08:28:13.491Z,78.82
2019-04-30T08:31:19.940Z,79.07
2019-04-30T08:34:26.392Z,78.84
2019-04-30T08:37:32.805Z,78.76
2019-04-30T08:40:47.239Z,78.37
2019-04-30T08:43:49.457Z,80.23
2019-04-30T08:46:55.508Z,77.73
2019-04-30T08:50:02.932Z,77.58
2019-04-30T08:53:10.931Z,77.57
2019-04-30T08:56:21.665Z,78.04
2019-04-30T08:59:26.274Z,76.08
2019-04-30T09:02:32.958Z,77.46
2019-04-30T09:06:01.410Z,78.07
2019-04-30T09:09:13.098Z,73.27
2019-04-30T09:12:19.755Z,74.67
2019-04-30T09:15:26.273Z,74.52
2019-04-30T09:18:32.693Z,71.82
2019-04-30T09:21:40.245Z,75.17
2019-04-30T09:24:46.764Z,74.22
2019-04-30T09:27:53.135Z,74.07
2019-04-30T09:30:59.985Z,74.95
2019-04-30T09:34:15.297Z,75.21
2019-04-30T09:37:14.630Z,73.29
2019-04-30T09:40:21.349Z,72.31
2019-04-30T09:43:28.625Z,72.35
2019-04-30T09:46:35.634Z,72.77
2019-04-30T09:49:42.123Z,71.65
2019-04-30T09:52:49.698Z,72.09
2019-04-30T09:55:56.474Z,72.42
2019-04-30T09:59:03.045Z,71.26
2019-04-30T10:02:10.747Z,69.86
2019-04-30T10:05:19.397Z,71.08
2019-04-30T10:08:26.534Z,69.36
2019-04-30T10:11:52.362Z,70.07
2019-04-30T10:14:59.268Z,70.38
2019-04-30T10:18:06.159Z,68.81
2019-04-30T10:21:12.790Z,69.42
2019-04-30T10:24:19.701Z,68.88
2019-04-30T10:27:29.153Z,69.49
2019-04-30T10:30:37.482Z,70.12
2019-04-30T10:33:44.003Z,66.98
2019-04-30T10:36:50.606Z,70.02
2019-04-30T10:39:57.256Z,68.55
2019-04-30T10:43:03.851Z,67.58
2019-04-30T10:46:11.865Z,68.05
2019-04-30T10:49:19.200Z,66.98
2019-04-30T10:52:26.358Z,65.86
2019-04-30T10:55:32.873Z,68.44
2019-04-30T10:58:39.433Z,67.76
2019-04-30T11:01:45.975Z,68.22
2019-04-30T11:04:52.526Z,67.44
2019-04-30T11:08:00.167Z,66.95
2019-04-30T11:11:06.916Z,64.59
2019-04-30T11:14:13.491Z,62.45
2019-04-30T11:17:20.113Z,63.81
2019-04-30T11:20:26.864Z,63.17
2019-04-30T11:23:33.730Z,60.69
2019-04-30T11:26:41.284Z,61.16
2019-04-30T11:29:49.519Z,62.30
2019-04-30T11:32:56.466Z,62.66
2019-04-30T11:36:05.082Z,62.47
2019-04-30T11:39:18.620Z,60.32
2019-04-30T11:42:25.145Z,61.13
2019-04-30T11:46:46.028Z,61.58
2019-04-30T11:49:52.660Z,59.16
2019-04-30T11:53:13.986Z,60.18
2019-04-30T11:56:08.489Z,57.35
2019-04-30T11:59:14.982Z,58.33
2019-04-30T12:02:29.294Z,58.36
2019-04-30T12:05:36.178Z,57.65
2019-04-30T12:09:01.566Z,58.50
2019-04-30T12:12:10.244Z,56.42
2019-04-30T12:15:16.856Z,56.29
2019-04-30T12:18:23.634Z,58.28
2019-04-30T12:21:30.109Z,56.19
2019-04-30T12:24:36.595Z,57.67
2019-04-30T12:27:43.515Z,57.16
2019-04-30T12:30:50.094Z,53.88
2019-04-30T12:33:56.474Z,55.68
2019-04-30T12:37:02.850Z,54.72
2019-04-30T12:40:25.567Z,55.03
2019-04-30T12:43:18.577Z,55.45
2019-04-30T12:46:25.142Z,53.41
2019-04-30T12:49:49.985Z,56.28
2019-04-30T12:53:04.144Z,58.01
2019-04-30T12:56:28.322Z,54.49
2019-04-30T12:59:34.831Z,53.28
2019-04-30T13:02:41.336Z,51.77
2019-04-30T13:05:50.063Z,52.72
2019-04-30T13:08:56.478Z,52.44
2019-04-30T13:12:03.679Z,53.35
2019-04-30T13:15:11.409Z,53.41
2019-04-30T13:18:19.470Z,53.36
2019-04-30T13:21:26.159Z,53.33
2019-04-30T13:24:32.705Z,50.04
2019-04-30T13:27:42.467Z,51.15
2019-04-30T13:30:49.447Z,52.67
2019-04-30T13:34:01.502Z,51.68
2019-04-30T13:37:09.283Z,50.43
2019-04-30T13:40:33.720Z,52.04
2019-04-30T13:44:00.985Z,52.32
2019-04-30T13:47:10.670Z,49.48
2019-04-30T13:50:15.944Z,52.36
2019-04-30T13:53:22.310Z,49.15
2019-04-30T13:56:29.113Z,50.41
2019-04-30T13:59:35.467Z,48.19
2019-04-30T14:02:46.051Z,46.91
2019-04-30T14:05:52.612Z,46.72
2019-04-30T14:09:00.719Z,45.25
2019-04-30T14:12:08.911Z,45.61
2019-04-30T14:15:16.439Z,45.58
2019-04-30T14:18:30.839Z,45.92
2019-04-30T14:21:35.246Z,47.87
2019-04-30T14:24:39.403Z,44.90
2019-04-30T14:27:52.287Z,46.35
2019-04-30T14:30:54.093Z,47.52
2019-04-30T14:34:00.663Z,46.80
2019-04-30T14:37:07.206Z,44.99
2019-04-30T14:40:15.413Z,44.66
2019-04-30T14:43:29.943Z,47.70
2019-04-30T14:47:14.321Z,44.43
2019-04-30T14:50:21.991Z,44.82
2019-04-30T14:53:49.916Z,43.17
2019-04-30T14:57:06.468Z,46.07
2019-04-30T15:00:31.983Z,45.21
2019-04-30T15:03:39.493Z,44.60
2019-04-30T15:06:46.331Z,46.45
2019-04-30T15:09:52.748Z,44.95
2019-04-30T15:13:00.188Z,45.79
2019-04-30T15:16:07.255Z,44.83
2019-04-30T15:19:13.615Z,43.95
2019-04-30T15:22:20.085Z,43.19
2019-04-30T15:25:34.319Z,45.10
2019-04-30T15:28:34.581Z,44.66
2019-04-30T15:31:42.598Z,42.99
2019-04-30T15:34:49.261Z,42.91
2019-04-30T15:37:59.027Z,44.48
2019-04-30T15:41:06.076Z,43.72
2019-04-30T15:44:12.873Z,44.25
2019-04-30T15:47:19.813Z,44.13
2019-04-30T15:50:26.426Z,42.80
2019-04-30T15:53:33.019Z,44.41
2019-04-30T15:56:40.860Z,44.65
2019-04-30T15:59:47.553Z,43.62
2019-04-30T16:03:00.269Z,43.56
2019-04-30T16:06:08.365Z,44.42
2019-04-30T16:09:22.715Z,44.59
2019-04-30T16:12:38.515Z,44.53
2019-04-30T16:15:46.258Z,43.06
2019-04-30T16:18:53.088Z,42.69
2019-04-30T16:22:02.520Z,43.83
2019-04-30T16:25:09.063Z,41.84
2019-04-30T16:28:15.708Z,42.60
2019-04-30T16:31:22.182Z,42.10
2019-04-30T16:34:30.454Z,42.01
2019-04-30T16:37:38.772Z,42.15
2019-04-30T16:40:45.280Z,39.92
2019-04-30T16:43:51.781Z,41.25
2019-04-30T16:46:59.644Z,41.72
2019-04-30T16:50:08.836Z,42.29
2019-04-30T16:53:15.166Z,43.16
2019-04-30T16:56:21.627Z,41.13
2019-04-30T16:59:34.636Z,40.94
2019-04-30T17:02:43.561Z,42.92
2019-04-30T17:05:55.970Z,42.57
2019-04-30T17:09:21.067Z,43.00
2019-04-30T17:12:35.115Z,45.07
2019-04-30T17:15:41.601Z,45.28
2019-04-30T17:18:49.908Z,46.94
2019-04-30T17:21:57.511Z,49.10
2019-04-30T17:25:04.112Z,48.17
2019-04-30T17:28:10.491Z,49.60
2019-04-30T17:31:16.972Z,56.21
2019-04-30T17:34:23.421Z,57.75
2019-04-30T17:37:31.518Z,58.96
2019-04-30T17:40:38.958Z,59.57
2019-04-30T17:43:45.475Z,60.84
2019-04-30T17:46:51.939Z,60.70
2019-04-30T17:49:58.901Z,62.50
2019-04-30T17:53:05.561Z,63.29
2019-04-30T17:56:11.953Z,64.93
2019-04-30T17:59:18.425Z,65.45
2019-04-30T18:02:26.902Z,66.67
2019-04-30T18:05:33.783Z,67.16
2019-04-30T18:08:40.326Z,66.45
2019-04-30T18:11:46.773Z,67.21
2019-04-30T18:14:53.612Z,67.79
2019-04-30T18:18:17.488Z,70.16
2019-04-30T18:21:31.642Z,69.04
2019-04-30T18:24:45.638Z,69.46
2019-04-30T18:27:55.539Z,68.73
2019-04-30T18:31:02.138Z,71.25
2019-04-30T18:34:09.448Z,71.63
2019-04-30T18:37:16.091Z,70.08
2019-04-30T18:40:22.520Z,71.20
2019-04-30T18:43:29.022Z,71.82
2019-04-30T18:46:35.576Z,72.92
2019-04-30T18:49:42.187Z,72.98
2019-04-30T18:52:50.724Z,72.59
2019-04-30T18:55:59.049Z,72.90
2019-04-30T18:59:05.481Z,72.18
2019-04-30T19:02:13.751Z,74.32
2019-04-30T19:05:26.688Z,73.03
2019-04-30T19:08:39.503Z,75.03
2019-04-30T19:11:52.594Z,74.64
2019-04-30T19:15:11.969Z,74.86
2019-04-30T19:18:28.376Z,76.08
2019-04-30T19:21:35.586Z,76.05
2019-04-30T19:24:53.413Z,74.90
2019-04-30T19:27:50.337Z,76.39
2019-04-30T19:30:58.855Z,76.72
2019-04-30T19:34:05.263Z,76.65
2019-04-30T19:37:12.388Z,75.60
2019-04-30T19:40:19.108Z,75.23
2019-04-30T19:43:25.542Z,76.32
2019-04-30T19:46:31.924Z,76.61
2019-04-30T19:49:40.418Z,82.72
2019-04-30T19:52:46.535Z,84.69
2019-04-30T19:55:56.086Z,81.93
2019-04-30T19:59:05.496Z,80.38
2019-04-30T20:02:10.814Z,79.73
2019-04-30T20:05:19.273Z,76.71
2019-04-30T20:08:25.569Z,78.00
2019-04-30T20:11:31.947Z,84.53
2019-04-30T20:14:39.105Z,83.91
2019-04-30T20:17:45.674Z,80.96
2019-04-30T20:20:54.105Z,79.89
2019-04-30T20:24:00.590Z,81.00
2019-04-30T20:27:09.944Z,79.94
2019-04-30T20:30:16.040Z,79.06
2019-04-30T20:33:22.961Z,80.35
2019-04-30T20:36:29.355Z,81.04
2019-04-30T20:39:49.451Z,80.62
2019-04-30T20:42:55.890Z,79.63
2019-04-30T20:46:02.307Z,83.94
2019-04-30T20:49:09.233Z,83.91
2019-04-30T20:52:15.691Z,86.80
2019-04-30T20:55:22.051Z,83.10
2019-04-30T20:58:28.522Z,83.04
2019-04-30T21:01:35.446Z,83.73
2019-04-30T21:04:42.081Z,81.93
2019-04-30T21:07:48.819Z,85.96
2019-04-30T21:10:55.177Z,83.22
2019-04-30T21:14:01.867Z,84.78
2019-04-30T21:17:08.508Z,82.98
2019-04-30T21:20:15.355Z,83.88
2019-04-30T21:23:21.769Z,85.44
2019-04-30T21:26:28.341Z,85.84
2019-04-30T21:29:34.724Z,86.41
2019-04-30T21:32:56.566Z,84.97
2019-04-30T21:36:08.975Z,84.44
2019-04-30T21:39:15.533Z,85.62
2019-04-30T21:42:22.144Z,84.76
2019-04-30T21:45:29.187Z,87.23
2019-04-30T21:48:38.468Z,86.67
2019-04-30T21:51:44.952Z,85.62
2019-04-30T21:54:51.465Z,84.13
2019-04-30T21:57:59.440Z,81.51
2019-04-30T22:01:20.225Z,83.89
2019-04-30T22:04:27.870Z,84.36
2019-04-30T22:07:34.442Z,82.98
2019-04-30T22:10:40.850Z,82.74
2019-04-30T22:13:49.062Z,81.98
2019-04-30T22:16:55.658Z,82.30
2019-04-30T22:20:02.042Z,81.50
2019-04-30T22:23:08.522Z,81.04
2019-04-30T22:26:14.987Z,79.74
2019-04-30T22:29:21.622Z,80.76
2019-04-30T22:32:28.100Z,82.10
2019-04-30T22:35:58.797Z,81.34
2019-04-30T22:39:35.099Z,81.69
2019-04-30T22:42:41.888Z,80.83
2019-04-30T22:45:53.482Z,80.00
2019-04-30T22:49:00.309Z,79.29
2019-04-30T22:52:06.708Z,81.23
2019-04-30T22:55:13.262Z,80.62
2019-04-30T22:58:19.639Z,81.73
2019-04-30T23:01:55.282Z,80.58
2019-04-30T23:05:02.371Z,82.22
2019-04-30T23:08:08.753Z,81.63
2019-04-30T23:11:15.219Z,81.26
2019-04-30T23:14:21.752Z,84.66
2019-04-30T23:17:28.245Z,81.04
2019-04-30T23:20:34.630Z,81.81
2019-04-30T23:23:41.373Z,81.38
2019-04-30T23:26:47.765Z,83.19
2019-04-30T23:30:03.133Z,86.22
2019-04-30T23:33:02.392Z,82.73
2019-04-30T23:36:08.795Z,82.21
2019-04-30T23:39:15.376Z,83.59
2019-04-30T23:42:21.842Z,81.77
2019-04-30T23:45:28.292Z,82.02
2019-04-30T23:48:34.713Z,83.12
2019-04-30T23:51:41.112Z,82.69
2019-04-30T23:54:47.575Z,82.92
2019-04-30T23:57:54.041Z,81.51
